createdAt,value
2018-11-04T00:01:04.255Z,15.07
2018-11-04T00:03:32.715Z,14.20
2018-11-04T00:06:01.208Z,15.67
2018-11-04T00:08:29.695Z,14.33
2018-11-04T00:10:58.182Z,17.57
2018-11-04T00:13:26.667Z,16.33
2018-11-04T00:15:55.157Z,18.10
2018-11-04T00:18:23.680Z,16.93
2018-11-04T00:20:52.140Z,17.63
2018-11-04T00:23:20.626Z,17.70
2018-11-04T00:25:49.088Z,15.20
2018-11-04T00:28:17.687Z,16.07
2018-11-04T00:30:46.168Z,15.17
2018-11-04T00:33:14.686Z,15.27
2018-11-04T00:35:43.139Z,15.77
2018-11-04T00:38:11.616Z,13.57
2018-11-04T00:40:40.058Z,14.23
2018-11-04T00:43:08.587Z,15.97
2018-11-04T00:45:37.152Z,17.00
2018-11-04T00:48:05.961Z,16.77
2018-11-04T00:50:34.423Z,16.07
2018-11-04T00:53:02.890Z,15.63
2018-11-04T00:55:31.357Z,15.60
2018-11-04T00:57:59.855Z,15.43
2018-11-04T01:00:28.352Z,15.40
2018-11-04T01:02:56.841Z,15.13
2018-11-04T01:05:25.279Z,15.67
2018-11-04T01:07:53.730Z,14.33
2018-11-04T01:10:22.214Z,14.70
2018-11-04T01:12:50.630Z,15.13
2018-11-04T01:15:19.102Z,15.13
2018-11-04T01:17:47.572Z,15.20
2018-11-04T01:20:16.970Z,14.30
2018-11-04T01:22:45.988Z,15.73
2018-11-04T01:25:14.465Z,13.80
2018-11-04T01:27:42.902Z,16.40
2018-11-04T01:30:13.426Z,16.63
2018-11-04T01:32:41.941Z,15.60
2018-11-04T01:35:10.456Z,14.97
2018-11-04T01:37:38.868Z,15.33
2018-11-04T01:40:08.480Z,15.83
2018-11-04T01:42:37.154Z,14.87
2018-11-04T01:45:06.821Z,14.90
2018-11-04T01:47:37.836Z,14.83
2018-11-04T01:50:09.620Z,15.47
2018-11-04T01:52:40.380Z,15.57
2018-11-04T01:55:09.493Z,13.37
2018-11-04T01:57:38.182Z,15.53
2018-11-04T02:00:11.232Z,14.47
2018-11-04T02:02:39.723Z,14.70
2018-11-04T02:05:09.224Z,14.33
2018-11-04T02:07:37.746Z,14.93
2018-11-04T02:10:07.546Z,14.77
2018-11-04T02:12:36.329Z,14.03
2018-11-04T02:15:05.542Z,14.97
2018-11-04T02:17:33.974Z,14.77
2018-11-04T02:20:02.451Z,15.50
2018-11-04T02:22:30.950Z,16.43
2018-11-04T02:24:59.400Z,16.47
2018-11-04T02:27:28.230Z,16.73
2018-11-04T02:29:56.682Z,17.60
2018-11-04T02:32:25.169Z,17.50
2018-11-04T02:34:53.619Z,15.33
2018-11-04T02:37:22.055Z,15.37
2018-11-04T02:39:50.563Z,15.10
2018-11-04T02:42:19.036Z,14.40
2018-11-04T02:44:47.590Z,14.83
2018-11-04T02:47:16.078Z,15.03
2018-11-04T02:49:44.566Z,16.23
2018-11-04T02:52:13.013Z,14.57
2018-11-04T02:54:41.483Z,15.60
2018-11-04T02:57:10.001Z,15.80
2018-11-04T02:59:38.482Z,15.77
2018-11-04T03:02:07.427Z,15.07
2018-11-04T03:04:35.918Z,15.90
2018-11-04T03:07:04.778Z,14.97
2018-11-04T03:09:33.219Z,15.93
2018-11-04T03:12:01.699Z,15.53
2018-11-04T03:14:30.121Z,15.73
2018-11-04T03:16:58.591Z,14.70
2018-11-04T03:19:27.078Z,16.00
2018-11-04T03:21:55.551Z,15.80
2018-11-04T03:24:24.033Z,16.57
2018-11-04T03:26:52.555Z,16.00
2018-11-04T03:29:21.061Z,16.47
2018-11-04T03:31:50.213Z,16.53
2018-11-04T03:34:18.809Z,16.27
2018-11-04T03:36:47.287Z,15.40
2018-11-04T03:39:15.777Z,16.80
2018-11-04T03:41:44.275Z,17.87
2018-11-04T03:44:13.091Z,16.93
2018-11-04T03:46:41.573Z,17.17
2018-11-04T03:49:10.061Z,16.43
2018-11-04T03:51:38.582Z,16.43
2018-11-04T03:54:07.369Z,15.90
2018-11-04T03:56:36.269Z,15.00
2018-11-04T03:59:05.157Z,14.50
2018-11-04T04:01:33.628Z,13.57
2018-11-04T04:04:02.105Z,14.37
2018-11-04T04:06:30.555Z,14.00
2018-11-04T04:08:58.990Z,15.30
2018-11-04T04:11:27.446Z,14.13
2018-11-04T04:13:55.902Z,14.30
2018-11-04T04:16:24.351Z,14.27
2018-11-04T04:18:52.813Z,13.73
2018-11-04T04:21:21.257Z,14.80
2018-11-04T04:23:49.687Z,13.97
2018-11-04T04:26:18.184Z,13.63
2018-11-04T04:28:46.627Z,13.77
2018-11-04T04:31:15.044Z,15.20
2018-11-04T04:33:43.557Z,15.33
2018-11-04T04:36:12.011Z,15.50
2018-11-04T04:38:40.469Z,13.93
2018-11-04T04:41:08.924Z,13.90
2018-11-04T04:43:37.360Z,14.10
2018-11-04T04:46:05.902Z,14.93
2018-11-04T04:48:35.013Z,13.60
2018-11-04T04:51:03.479Z,14.17
2018-11-04T04:53:31.975Z,15.07
2018-11-04T04:56:01.434Z,13.53
2018-11-04T04:58:29.907Z,13.80
2018-11-04T05:00:58.414Z,13.80
2018-11-04T05:03:26.850Z,14.07
2018-11-04T05:05:55.295Z,14.10
2018-11-04T05:08:23.801Z,14.57
2018-11-04T05:10:52.238Z,14.17
2018-11-04T05:13:20.702Z,13.83
2018-11-04T05:15:49.165Z,14.30
2018-11-04T05:18:17.579Z,14.47
2018-11-04T05:20:46.025Z,13.60
2018-11-04T05:23:14.507Z,13.50
2018-11-04T05:25:42.947Z,14.70
2018-11-04T05:28:11.417Z,13.67
2018-11-04T05:30:39.977Z,13.77
2018-11-04T05:33:08.436Z,18.77
2018-11-04T05:35:36.877Z,14.50
2018-11-04T05:38:05.641Z,17.27
2018-11-04T05:40:34.076Z,14.40
2018-11-04T05:43:02.551Z,14.90
2018-11-04T05:45:31.048Z,15.53
2018-11-04T05:47:59.510Z,13.87
2018-11-04T05:50:27.991Z,15.10
2018-11-04T05:52:56.475Z,13.93
2018-11-04T05:55:24.994Z,13.57
2018-11-04T05:57:53.555Z,14.67
2018-11-04T06:00:22.028Z,15.80
2018-11-04T06:02:50.525Z,13.73
2018-11-04T06:05:18.955Z,15.13
2018-11-04T06:07:47.456Z,15.37
2018-11-04T06:10:15.924Z,14.93
2018-11-04T06:12:44.391Z,15.47
2018-11-04T06:15:12.941Z,14.77
2018-11-04T06:17:41.447Z,14.80
2018-11-04T06:20:10.933Z,15.60
2018-11-04T06:22:39.458Z,16.07
2018-11-04T06:25:08.201Z,15.10
2018-11-04T06:27:36.723Z,14.67
2018-11-04T06:30:07.554Z,16.03
2018-11-04T06:32:36.057Z,15.47
2018-11-04T06:35:05.965Z,15.20
2018-11-04T06:37:35.527Z,16.10
2018-11-04T06:40:04.208Z,15.90
2018-11-04T06:42:32.704Z,15.33
2018-11-04T06:45:01.140Z,15.97
2018-11-04T06:47:29.923Z,16.10
2018-11-04T06:49:58.364Z,16.73
2018-11-04T06:52:26.788Z,17.57
2018-11-04T06:54:55.248Z,16.77
2018-11-04T06:57:23.756Z,16.43
2018-11-04T06:59:52.203Z,16.63
2018-11-04T07:02:20.622Z,16.50
2018-11-04T07:04:49.085Z,16.77
2018-11-04T07:07:17.615Z,15.50
2018-11-04T07:09:46.054Z,16.20
2018-11-04T07:12:14.557Z,15.93
2018-11-04T07:14:43.018Z,16.20
2018-11-04T07:17:11.482Z,15.93
2018-11-04T07:19:39.997Z,16.27
2018-11-04T07:22:08.485Z,16.83
2018-11-04T07:24:36.920Z,15.20
2018-11-04T07:27:05.939Z,16.63
2018-11-04T07:29:34.461Z,16.20
2018-11-04T07:32:03.007Z,15.53
2018-11-04T07:34:31.487Z,15.17
2018-11-04T07:36:59.966Z,15.97
2018-11-04T07:39:28.445Z,14.90
2018-11-04T07:41:56.909Z,15.07
2018-11-04T07:44:25.481Z,14.30
2018-11-04T07:46:53.878Z,15.13
2018-11-04T07:49:23.024Z,15.53
2018-11-04T07:51:51.501Z,14.80
2018-11-04T07:54:19.952Z,29.33
2018-11-04T07:56:48.387Z,27.63
2018-11-04T07:59:16.883Z,24.07
2018-11-04T08:01:45.348Z,22.60
2018-11-04T08:04:13.889Z,17.87
2018-11-04T08:06:53.138Z,20.57
2018-11-04T08:09:21.628Z,18.87
2018-11-04T08:11:50.109Z,17.47
2018-11-04T08:14:18.557Z,15.87
2018-11-04T08:16:47.095Z,16.17
2018-11-04T08:19:15.562Z,17.13
2018-11-04T08:21:45.253Z,15.67
2018-11-04T08:24:13.784Z,17.00
2018-11-04T08:26:42.318Z,19.07
2018-11-04T08:29:10.784Z,17.50
2018-11-04T08:31:39.317Z,16.97
2018-11-04T08:34:07.777Z,17.50
2018-11-04T08:36:36.237Z,18.10
2018-11-04T08:39:05.890Z,19.70
2018-11-04T08:41:34.336Z,18.77
2018-11-04T08:44:02.894Z,18.93
2018-11-04T08:46:31.329Z,18.53
2018-11-04T08:48:59.837Z,18.03
2018-11-04T08:51:28.344Z,18.07
2018-11-04T08:53:56.974Z,18.83
2018-11-04T08:56:25.434Z,19.60
2018-11-04T08:58:53.897Z,18.30
2018-11-04T09:01:22.432Z,19.40
2018-11-04T09:03:51.057Z,18.27
2018-11-04T09:06:19.602Z,18.30
2018-11-04T09:08:48.117Z,19.10
2018-11-04T09:11:16.620Z,18.63
2018-11-04T09:13:45.197Z,18.50
2018-11-04T09:16:13.907Z,18.70
2018-11-04T09:18:42.410Z,18.93
2018-11-04T09:21:10.965Z,19.70
2018-11-04T09:23:39.592Z,19.17
2018-11-04T09:26:08.105Z,19.40
2018-11-04T09:28:36.685Z,18.53
2018-11-04T09:31:05.704Z,19.20
2018-11-04T09:33:34.300Z,18.33
2018-11-04T09:36:03.561Z,19.47
2018-11-04T09:38:33.441Z,19.37
2018-11-04T09:41:02.345Z,19.30
2018-11-04T09:43:30.896Z,18.83
2018-11-04T09:45:59.485Z,24.97
2018-11-04T09:48:28.072Z,19.93
2018-11-04T09:50:56.593Z,20.47
2018-11-04T09:53:25.109Z,19.97
2018-11-04T09:55:53.668Z,21.27
2018-11-04T09:58:22.261Z,21.37
2018-11-04T10:00:50.833Z,21.37
2018-11-04T10:03:19.329Z,21.53
2018-11-04T10:05:47.898Z,22.07
2018-11-04T10:08:16.368Z,22.00
2018-11-04T10:10:45.705Z,21.00
2018-11-04T10:13:14.299Z,22.20
2018-11-04T10:15:42.747Z,22.97
2018-11-04T10:18:11.536Z,20.93
2018-11-04T10:20:40.480Z,22.20
2018-11-04T10:23:08.641Z,22.10
2018-11-04T10:25:37.276Z,22.57
2018-11-04T10:28:06.484Z,20.53
2018-11-04T10:30:35.038Z,20.87
2018-11-04T10:33:03.617Z,21.80
2018-11-04T10:35:32.191Z,22.07
2018-11-04T10:38:00.722Z,21.40
2018-11-04T10:40:29.303Z,22.40
2018-11-04T10:42:57.878Z,22.23
2018-11-04T10:45:26.413Z,22.67
2018-11-04T10:47:55.041Z,21.50
2018-11-04T10:50:23.546Z,23.13
2018-11-04T10:52:52.120Z,22.43
2018-11-04T10:55:20.654Z,24.10
2018-11-04T10:57:49.182Z,24.23
2018-11-04T11:00:23.223Z,24.17
2018-11-04T11:02:51.746Z,23.87
2018-11-04T11:05:20.237Z,23.97
2018-11-04T11:07:48.851Z,23.33
2018-11-04T11:10:17.530Z,23.93
2018-11-04T11:12:47.100Z,25.07
2018-11-04T11:15:15.679Z,23.73
2018-11-04T11:17:44.289Z,23.10
2018-11-04T11:20:13.249Z,23.63
2018-11-04T11:22:42.433Z,25.97
2018-11-04T11:25:11.145Z,25.40
2018-11-04T11:27:39.686Z,25.27
2018-11-04T11:30:08.327Z,25.77
2018-11-04T11:32:36.884Z,24.00
2018-11-04T11:35:06.554Z,25.20
2018-11-04T11:37:35.488Z,25.87
2018-11-04T11:40:04.136Z,24.90
2018-11-04T11:42:32.648Z,26.67
2018-11-04T11:45:01.217Z,25.80
2018-11-04T11:47:29.733Z,26.97
2018-11-04T11:49:58.319Z,25.67
2018-11-04T11:52:26.900Z,26.83
2018-11-04T11:54:55.583Z,24.07
2018-11-04T11:57:24.681Z,25.83
2018-11-04T11:59:53.229Z,26.10
2018-11-04T12:02:21.738Z,24.93
2018-11-04T12:04:50.427Z,26.17
2018-11-04T12:07:33.218Z,26.67
2018-11-04T12:10:01.920Z,26.87
2018-11-04T12:12:30.581Z,27.20
2018-11-04T12:14:59.088Z,25.77
2018-11-04T12:17:27.672Z,23.83
2018-11-04T12:19:56.203Z,25.67
2018-11-04T12:25:15.838Z,23.87
2018-11-04T12:27:44.541Z,24.70
2018-11-04T12:33:03.742Z,26.60
2018-11-04T12:35:32.235Z,25.00
2018-11-04T12:38:00.784Z,25.30
2018-11-04T12:40:50.865Z,26.57
2018-11-04T12:43:19.358Z,23.83
2018-11-04T12:45:55.313Z,24.60
2018-11-04T12:51:14.493Z,24.27
2018-11-04T12:53:43.275Z,25.80
2018-11-04T12:56:11.742Z,24.10
2018-11-04T12:58:40.349Z,24.10
2018-11-04T13:01:08.984Z,23.93
2018-11-04T13:03:37.584Z,23.67
2018-11-04T13:06:06.094Z,25.20
2018-11-04T13:08:34.657Z,23.27
2018-11-04T13:11:03.209Z,23.57
2018-11-04T13:13:51.484Z,24.13
2018-11-04T13:16:20.133Z,24.10
2018-11-04T13:18:48.661Z,25.50
2018-11-04T13:21:17.198Z,24.87
2018-11-04T13:23:45.663Z,23.17
2018-11-04T13:26:14.262Z,25.30
2018-11-04T13:28:52.564Z,23.23
2018-11-04T13:34:00.318Z,24.03
2018-11-04T13:36:51.561Z,24.73
2018-11-04T13:39:20.184Z,23.73
2018-11-04T13:41:53.652Z,25.10
2018-11-04T13:44:22.168Z,24.70
2018-11-04T13:46:52.691Z,22.33
2018-11-04T13:49:21.238Z,25.33
2018-11-04T13:51:49.705Z,23.70
2018-11-04T13:54:18.177Z,25.10
2018-11-04T13:56:46.707Z,23.37
2018-11-04T13:59:15.326Z,22.87
2018-11-04T14:01:43.906Z,22.47
2018-11-04T14:04:12.398Z,23.23
2018-11-04T14:06:40.888Z,21.93
2018-11-04T14:09:09.592Z,23.00
2018-11-04T14:11:38.258Z,21.33
2018-11-04T14:14:06.855Z,22.70
2018-11-04T14:16:35.378Z,23.97
2018-11-04T14:19:03.891Z,24.87
2018-11-04T14:21:36.432Z,23.93
2018-11-04T14:24:05.206Z,24.40
2018-11-04T14:26:33.694Z,22.97
2018-11-04T14:29:02.175Z,24.30
2018-11-04T14:31:30.691Z,22.77
2018-11-04T14:33:59.184Z,22.13
2018-11-04T14:36:27.984Z,20.00
2018-11-04T14:38:56.531Z,22.00
2018-11-04T14:41:25.045Z,20.83
2018-11-04T14:43:53.595Z,21.87
2018-11-04T14:46:22.132Z,21.30
2018-11-04T14:48:50.606Z,22.43
2018-11-04T14:51:19.100Z,21.70
2018-11-04T14:53:47.597Z,22.77
2018-11-04T14:56:16.077Z,20.30
2018-11-04T14:58:53.153Z,20.83
2018-11-04T15:01:21.780Z,20.70
2018-11-04T15:03:54.165Z,21.87
2018-11-04T15:06:23.997Z,23.90
2018-11-04T15:08:52.509Z,23.20
2018-11-04T15:11:21.705Z,21.33
2018-11-04T15:13:50.230Z,20.73
2018-11-04T15:16:18.862Z,21.37
2018-11-04T15:18:47.508Z,22.63
2018-11-04T15:21:16.160Z,21.77
2018-11-04T15:23:44.729Z,21.57
2018-11-04T15:26:13.397Z,21.67
2018-11-04T15:28:53.731Z,22.17
2018-11-04T15:31:22.342Z,21.50
2018-11-04T15:33:52.283Z,20.13
2018-11-04T15:36:20.964Z,21.87
2018-11-04T15:38:49.554Z,20.90
2018-11-04T15:43:57.633Z,21.70
2018-11-04T15:46:26.425Z,21.47
2018-11-04T15:48:55.171Z,19.87
2018-11-04T15:51:23.710Z,19.77
2018-11-04T15:53:53.947Z,20.57
2018-11-04T15:56:40.518Z,21.30
2018-11-04T15:59:09.356Z,21.37
2018-11-04T16:01:52.178Z,20.30
2018-11-04T16:04:20.739Z,20.63
2018-11-04T16:06:53.191Z,19.97
2018-11-04T16:09:37.683Z,20.00
2018-11-04T16:14:52.748Z,21.20
2018-11-04T16:17:21.524Z,20.20
2018-11-04T16:19:50.341Z,22.60
2018-11-04T16:44:52.786Z,22.47
2018-11-04T16:53:23.324Z,20.03
2018-11-04T16:55:52.642Z,19.57
2018-11-04T17:01:11.985Z,18.63
2018-11-04T17:03:41.425Z,17.00
2018-11-04T17:06:09.969Z,17.03
2018-11-04T17:08:38.563Z,16.40
2018-11-04T17:13:58.066Z,17.60
2018-11-04T17:16:26.682Z,15.97
2018-11-04T17:18:56.300Z,14.20
2018-11-04T17:21:24.966Z,16.43
2018-11-04T17:23:53.517Z,16.27
2018-11-04T17:26:22.176Z,15.50
2018-11-04T17:28:50.799Z,16.77
2018-11-04T17:34:04.334Z,16.20
2018-11-04T17:36:33.863Z,15.73
2018-11-04T17:39:02.573Z,15.80
2018-11-04T17:41:31.118Z,17.00
2018-11-04T17:43:59.694Z,17.47
2018-11-04T17:46:39.853Z,16.37
2018-11-04T17:49:08.921Z,16.23
2018-11-04T17:51:52.609Z,16.73
2018-11-04T17:54:21.129Z,16.50
2018-11-04T17:56:49.615Z,17.33
2018-11-04T17:59:18.182Z,18.33
2018-11-04T18:01:53.393Z,18.63
2018-11-04T18:04:28.769Z,19.03
2018-11-04T18:06:57.330Z,18.50
2018-11-04T18:09:25.844Z,16.10
2018-11-04T18:11:54.486Z,17.57
2018-11-04T18:14:31.595Z,19.00
2018-11-04T18:17:00.123Z,18.60
2018-11-04T18:19:28.857Z,19.27
2018-11-04T18:21:57.501Z,17.73
2018-11-04T18:24:26.050Z,17.43
2018-11-04T18:26:54.657Z,18.70
2018-11-04T18:32:14.378Z,17.10
2018-11-04T18:34:42.931Z,17.60
2018-11-04T18:37:20.835Z,18.53
2018-11-04T18:39:49.448Z,18.00
2018-11-04T18:42:17.969Z,18.77
2018-11-04T18:44:46.486Z,17.57
2018-11-04T18:47:15.014Z,17.53
2018-11-04T18:49:44.152Z,19.37
2018-11-04T18:52:12.906Z,18.60
2018-11-04T18:54:41.525Z,18.17
2018-11-04T18:57:10.144Z,18.50
2018-11-04T18:59:47.237Z,20.63
2018-11-04T19:02:16.373Z,18.87
2018-11-04T19:04:45.392Z,18.87
2018-11-04T19:07:14.982Z,20.83
2018-11-04T19:09:43.484Z,21.10
2018-11-04T19:12:12.585Z,19.60
2018-11-04T19:14:52.646Z,18.37
2018-11-04T19:17:21.382Z,18.87
2018-11-04T19:19:50.002Z,20.47
2018-11-04T19:22:18.633Z,20.33
2018-11-04T19:24:47.230Z,19.60
2018-11-04T19:27:15.904Z,19.40
2018-11-04T19:29:45.684Z,19.03
2018-11-04T19:32:14.680Z,17.37
2018-11-04T19:34:43.246Z,20.30
2018-11-04T19:37:11.835Z,19.17
2018-11-04T19:39:40.520Z,19.33
2018-11-04T19:42:09.077Z,19.57
2018-11-04T19:44:52.046Z,20.57
2018-11-04T19:47:20.665Z,21.03
2018-11-04T19:49:53.295Z,18.63
2018-11-04T19:55:13.142Z,21.37
2018-11-04T19:57:52.506Z,21.67
2018-11-04T20:03:11.641Z,21.50
2018-11-04T20:05:52.517Z,21.73
2018-11-04T20:11:12.263Z,22.00
2018-11-04T20:13:57.934Z,20.50
2018-11-04T20:16:26.434Z,19.43
2018-11-04T20:19:00.238Z,19.90
2018-11-04T20:21:29.199Z,20.77
2018-11-04T21:00:51.964Z,23.23
2018-11-04T21:09:01.472Z,24.97
2018-11-04T21:11:30.076Z,23.87
2018-11-04T21:13:58.633Z,24.03
2018-11-04T21:16:27.316Z,25.70
2018-11-04T21:18:55.863Z,23.70
2018-11-04T21:21:24.580Z,25.10
2018-11-04T21:23:53.091Z,26.50
2018-11-04T21:26:21.668Z,26.63
2018-11-04T21:28:53.437Z,26.87
2018-11-04T21:31:21.843Z,28.63
2018-11-04T21:33:53.157Z,27.53
2018-11-04T21:36:23.902Z,28.83
2018-11-04T21:38:53.426Z,25.63
2018-11-04T21:41:21.938Z,27.77
2018-11-04T21:43:50.776Z,26.27
2018-11-04T21:46:18.923Z,24.40
2018-11-04T21:48:53.526Z,23.87
2018-11-04T21:51:22.066Z,23.90
2018-11-04T21:53:53.543Z,25.40
2018-11-04T21:59:12.734Z,26.20
2018-11-04T22:01:41.304Z,25.73
2018-11-04T22:04:10.005Z,24.87
2018-11-04T22:06:38.542Z,24.27
2018-11-04T22:09:08.631Z,26.37
2018-11-04T22:11:37.207Z,24.77
2018-11-04T22:14:06.448Z,24.80
2018-11-04T22:16:34.977Z,25.23
2018-11-04T22:19:03.497Z,25.47
2018-11-04T22:21:31.992Z,24.50
2018-11-04T22:24:00.509Z,23.67
2018-11-04T22:26:29.094Z,22.50
2018-11-04T22:28:57.640Z,23.27
2018-11-04T22:31:26.260Z,22.03
2018-11-04T22:33:54.964Z,22.70
2018-11-04T22:36:23.457Z,24.63
2018-11-04T22:38:53.742Z,21.90
2018-11-04T22:41:22.362Z,24.87
2018-11-04T22:43:50.859Z,23.70
2018-11-04T22:46:19.407Z,23.20
2018-11-04T22:48:53.917Z,23.03
2018-11-04T22:51:22.410Z,21.63
2018-11-04T22:53:53.885Z,22.80
2018-11-04T22:56:22.319Z,23.53
2018-11-04T22:58:50.806Z,21.70
2018-11-04T23:01:20.464Z,23.03
2018-11-04T23:03:48.933Z,20.67
2018-11-04T23:06:17.521Z,21.07
2018-11-04T23:08:52.549Z,21.40
2018-11-04T23:11:21.098Z,20.77
2018-11-04T23:13:49.581Z,20.90
2018-11-04T23:16:18.127Z,21.27
2018-11-04T23:18:53.189Z,21.10
2018-11-04T23:21:21.690Z,21.03
2018-11-04T23:23:54.096Z,20.60
2018-11-04T23:26:22.908Z,20.60
2018-11-04T23:28:51.456Z,20.00
2018-11-04T23:34:09.758Z,19.33
2018-11-04T23:36:38.413Z,19.10
2018-11-04T23:39:08.346Z,20.30
2018-11-04T23:41:36.803Z,18.63
2018-11-04T23:44:05.441Z,18.57
2018-11-04T23:46:33.971Z,19.07
2018-11-04T23:49:02.631Z,20.23
2018-11-04T23:51:31.408Z,20.87
2018-11-04T23:53:59.932Z,17.60
2018-11-04T23:56:28.429Z,20.73
2018-11-04T23:58:56.956Z,19.70
